Time;durP1;ratioP1;P1;durP2;ratioP2;P2;SDS_P1;SDS_P2;PMS_P1;PMS_P2;Temp;Humidity;BMP_temperature;BMP_pressure;BME280_temperature;BME280_humidity;BME280_pressure;Samples;Min_cycle;Max_cycle;Signal;HPM_P1;HPM_P2
2020/12/04 00:01:36;;;;;;;5.63;3.83;;;2.50;95.70;;;;;;5055455;28;20229;-69
2020/12/04 00:04:03;;;;;;;5.00;3.40;;;2.60;95.70;;;;;;5055519;28;20206;-70
2020/12/04 00:06:28;;;;;;;5.15;4.57;;;2.70;95.70;;;;;;5055357;28;20241;-69
2020/12/04 00:08:54;;;;;;;8.33;5.70;;;2.60;95.50;;;;;;5055092;28;20218;-69
2020/12/04 00:11:20;;;;;;;5.23;4.20;;;2.40;96.10;;;;;;5055141;28;20167;-69
2020/12/04 00:13:46;;;;;;;5.75;3.80;;;2.40;96.20;;;;;;5055044;28;20638;-70
2020/12/04 00:16:12;;;;;;;3.97;3.30;;;2.60;96.00;;;;;;5054881;28;20183;-69
2020/12/04 00:18:37;;;;;;;4.50;3.30;;;2.60;95.90;;;;;;5054928;28;20198;-69
2020/12/04 00:21:03;;;;;;;8.80;4.77;;;2.70;95.70;;;;;;5054929;28;20182;-69
2020/12/04 00:23:29;;;;;;;6.73;6.03;;;2.80;95.70;;;;;;5054946;28;20178;-68
2020/12/04 00:25:55;;;;;;;7.43;3.27;;;2.80;95.30;;;;;;5054653;28;20246;-70
2020/12/04 00:28:20;;;;;;;7.47;3.57;;;2.80;95.50;;;;;;5054469;28;20728;-69
2020/12/04 00:30:46;;;;;;;5.43;4.50;;;2.80;95.60;;;;;;5054282;28;20405;-69
2020/12/04 00:33:12;;;;;;;5.40;4.03;;;2.80;95.60;;;;;;5054778;28;20197;-69
2020/12/04 00:35:37;;;;;;;5.27;3.80;;;2.80;95.60;;;;;;5054529;28;20907;-69
2020/12/04 00:38:03;;;;;;;7.27;4.50;;;2.90;95.60;;;;;;5054696;28;20175;-69
2020/12/04 00:40:29;;;;;;;5.27;3.87;;;2.90;95.40;;;;;;5054623;28;20171;-70
2020/12/04 00:42:56;;;;;;;3.83;2.63;;;2.70;95.50;;;;;;5054491;28;20176;-70
2020/12/04 00:45:22;;;;;;;8.93;4.30;;;2.60;95.90;;;;;;5054362;28;20174;-69
2020/12/04 00:47:48;;;;;;;7.47;3.90;;;2.70;96.10;;;;;;5054533;28;20229;-69
2020/12/04 00:50:14;;;;;;;7.67;4.63;;;2.80;96.10;;;;;;5054426;28;20195;-69
2020/12/04 00:52:39;;;;;;;6.43;4.30;;;2.80;95.80;;;;;;5054462;28;20197;-70
2020/12/04 00:55:05;;;;;;;5.27;4.60;;;2.70;95.70;;;;;;5054210;28;20629;-70
2020/12/04 00:57:30;;;;;;;7.50;4.93;;;2.60;95.80;;;;;;5054190;28;20175;-70
2020/12/04 00:59:56;;;;;;;4.60;3.83;;;2.60;96.10;;;;;;5054158;28;20696;-69
2020/12/04 01:02:22;;;;;;;4.43;3.40;;;2.70;96.10;;;;;;5054422;28;20219;-69
2020/12/04 01:04:47;;;;;;;8.60;4.70;;;2.70;96.00;;;;;;5054035;28;20262;-69
2020/12/04 01:07:13;;;;;;;4.50;4.07;;;2.80;95.70;;;;;;5053988;28;20242;-69
2020/12/04 01:09:39;;;;;;;5.33;3.70;;;2.60;95.70;;;;;;5054137;28;20202;-69
2020/12/04 01:12:05;;;;;;;5.23;4.67;;;2.60;95.70;;;;;;5054149;28;20182;-69
2020/12/04 01:14:30;;;;;;;6.72;3.92;;;2.60;95.90;;;;;;5053888;28;20166;-69
2020/12/04 01:16:56;;;;;;;5.60;3.33;;;2.70;95.70;;;;;;5053790;28;20186;-69
2020/12/04 01:19:21;;;;;;;3.57;3.23;;;2.70;95.80;;;;;;5053809;28;20199;-70
2020/12/04 01:21:48;;;;;;;5.67;3.90;;;2.50;96.20;;;;;;5053954;28;20657;-69
2020/12/04 01:24:14;;;;;;;3.70;3.35;;;2.40;96.40;;;;;;5053656;28;20183;-69
2020/12/04 01:26:40;;;;;;;3.08;2.78;;;2.50;96.70;;;;;;5053613;28;20303;-69
2020/12/04 01:29:06;;;;;;;5.67;3.67;;;2.50;96.80;;;;;;5053536;28;20668;-69
2020/12/04 01:31:32;;;;;;;4.07;3.47;;;2.60;96.60;;;;;;5053604;28;20911;-70
2020/12/04 01:34:00;;;;;;;6.40;5.00;;;2.80;96.40;;;;;;5053799;28;20175;-70
2020/12/04 01:36:27;;;;;;;5.10;2.95;;;2.80;96.00;;;;;;5053247;28;20493;-69
2020/12/04 01:38:53;;;;;;;4.32;3.50;;;2.80;95.90;;;;;;5053714;28;20267;-69
2020/12/04 01:41:19;;;;;;;3.90;3.45;;;2.90;95.80;;;;;;5053514;28;20238;-69
2020/12/04 01:43:45;;;;;;;6.13;3.90;;;2.90;95.70;;;;;;5053550;28;20608;-69
2020/12/04 01:46:13;;;;;;;3.00;2.63;;;3.10;95.60;;;;;;5053478;28;20179;-69
2020/12/04 01:48:38;;;;;;;4.18;3.03;;;3.00;95.40;;;;;;5053493;28;20249;-69
2020/12/04 01:51:04;;;;;;;3.03;2.70;;;3.00;95.40;;;;;;5053466;28;20180;-69
2020/12/04 01:53:30;;;;;;;3.40;2.97;;;3.10;95.30;;;;;;5053462;28;20567;-70
2020/12/04 01:55:56;;;;;;;6.20;3.43;;;3.10;95.20;;;;;;5051965;28;20178;-69
2020/12/04 01:58:21;;;;;;;4.13;3.72;;;3.00;95.30;;;;;;5053296;28;20188;-69
2020/12/04 02:00:47;;;;;;;5.00;3.67;;;3.10;95.30;;;;;;5053295;28;20189;-69
2020/12/04 02:03:14;;;;;;;3.80;3.50;;;2.90;95.30;;;;;;5052185;28;20187;-69
2020/12/04 02:05:48;;;;;;;3.58;3.38;;;2.90;95.60;;;;;;5053125;28;20171;-69
2020/12/04 02:08:25;;;;;;;4.63;3.10;;;3.00;95.60;;;;;;5053310;28;20690;-69
2020/12/04 02:11:11;;;;;;;3.05;2.78;;;2.90;95.50;;;;;;5053075;28;20172;-69
2020/12/04 02:13:40;;;;;;;3.45;2.92;;;3.00;95.60;;;;;;5053454;28;20171;-69
2020/12/04 02:16:06;;;;;;;3.20;2.35;;;3.00;95.60;;;;;;5052992;28;20193;-70
2020/12/04 02:18:32;;;;;;;1.80;1.67;;;2.90;95.60;;;;;;5053322;28;20207;-69
2020/12/04 02:21:06;;;;;;;4.05;3.58;;;3.00;95.80;;;;;;5053098;28;20403;-69
2020/12/04 02:23:32;;;;;;;4.10;1.83;;;3.10;95.90;;;;;;5053100;28;20200;-69
2020/12/04 02:25:59;;;;;;;3.17;2.50;;;3.10;95.70;;;;;;5053279;28;20649;-69
2020/12/04 02:28:34;;;;;;;4.03;2.75;;;3.20;95.60;;;;;;5052899;28;20202;-70
2020/12/04 02:31:00;;;;;;;8.35;3.42;;;3.20;95.50;;;;;;5052988;28;20238;-69
2020/12/04 02:33:26;;;;;;;3.33;2.58;;;3.20;95.40;;;;;;5053230;28;20238;-69
2020/12/04 02:35:52;;;;;;;3.93;3.33;;;3.30;95.30;;;;;;5052815;28;20644;-70
2020/12/04 02:38:17;;;;;;;2.67;2.47;;;3.20;95.20;;;;;;5052895;28;20172;-69
2020/12/04 02:40:43;;;;;;;5.03;3.10;;;3.20;95.20;;;;;;5053065;28;20250;-69
2020/12/04 02:43:11;;;;;;;2.77;2.50;;;3.30;95.10;;;;;;5053153;28;20179;-70
2020/12/04 02:45:37;;;;;;;3.40;2.65;;;3.20;95.20;;;;;;5052604;28;20250;-68
2020/12/04 02:48:03;;;;;;;3.40;3.10;;;3.20;95.30;;;;;;5052890;28;20302;-70
2020/12/04 02:50:32;;;;;;;3.92;2.67;;;3.20;95.40;;;;;;5052865;28;20255;-69
2020/12/04 02:52:57;;;;;;;3.72;2.65;;;3.20;95.30;;;;;;5053415;28;20178;-69
2020/12/04 02:55:23;;;;;;;2.80;2.57;;;3.20;95.30;;;;;;5056465;28;20167;-69
2020/12/04 02:57:49;;;;;;;6.03;3.57;;;3.10;95.40;;;;;;5056720;28;20175;-69
2020/12/04 03:00:14;;;;;;;3.10;2.73;;;3.20;95.30;;;;;;5056644;28;20676;-70
2020/12/04 03:02:40;;;;;;;3.47;2.20;;;3.10;95.50;;;;;;5056715;28;20177;-69
2020/12/04 03:05:06;;;;;;;2.63;2.37;;;3.00;95.70;;;;;;5056423;28;20176;-70
2020/12/04 03:07:31;;;;;;;3.67;2.50;;;2.80;96.10;;;;;;5056352;28;20226;-69
2020/12/04 03:09:57;;;;;;;2.77;2.57;;;2.70;96.70;;;;;;5055239;28;20656;-69
2020/12/04 03:12:22;;;;;;;3.63;2.43;;;2.90;96.80;;;;;;5056492;28;20168;-68
2020/12/04 03:14:48;;;;;;;3.20;2.90;;;3.00;96.70;;;;;;5056099;28;20169;-69
2020/12/04 03:17:13;;;;;;;3.87;2.27;;;3.10;96.50;;;;;;5056624;28;20210;-69
2020/12/04 03:19:39;;;;;;;2.07;1.87;;;3.20;96.30;;;;;;5056098;28;20195;-70
2020/12/04 03:22:05;;;;;;;3.07;2.23;;;3.20;96.10;;;;;;5056219;28;20656;-69
2020/12/04 03:24:33;;;;;;;3.13;2.70;;;3.20;95.70;;;;;;5056126;28;20187;-69
2020/12/04 03:27:02;;;;;;;3.28;2.88;;;3.10;96.00;;;;;;5055906;28;20189;-68
2020/12/04 03:29:28;;;;;;;2.28;2.00;;;3.00;96.30;;;;;;5055841;28;20230;-70
2020/12/04 03:31:53;;;;;;;3.03;2.30;;;2.70;96.70;;;;;;5055790;28;20172;-69
2020/12/04 03:34:19;;;;;;;2.33;2.10;;;2.70;97.20;;;;;;5055904;28;20237;-69
2020/12/04 03:36:45;;;;;;;3.27;2.47;;;2.60;97.60;;;;;;5055595;28;20176;-69
2020/12/04 03:39:10;;;;;;;2.70;2.50;;;2.60;97.60;;;;;;5055650;28;20435;-69
2020/12/04 03:41:36;;;;;;;4.33;2.17;;;2.70;97.70;;;;;;5055897;28;20179;-69
2020/12/04 03:44:02;;;;;;;2.50;2.30;;;2.90;97.50;;;;;;5055829;28;20180;-69
2020/12/04 03:46:27;;;;;;;5.00;2.53;;;2.90;97.20;;;;;;5055379;28;20179;-69
2020/12/04 03:48:53;;;;;;;2.50;2.20;;;2.90;97.20;;;;;;5055545;28;20732;-69
2020/12/04 03:51:18;;;;;;;4.73;3.23;;;3.00;97.40;;;;;;5055572;28;20536;-69
2020/12/04 03:53:46;;;;;;;2.60;2.27;;;3.10;97.00;;;;;;5055746;28;20183;-69
2020/12/04 03:56:12;;;;;;;3.17;2.45;;;3.20;96.80;;;;;;5055356;28;20171;-69
2020/12/04 03:58:38;;;;;;;2.20;2.00;;;3.30;96.60;;;;;;5055520;28;20565;-70
2020/12/04 04:01:04;;;;;;;2.70;2.50;;;3.10;96.60;;;;;;5055574;28;20184;-69
2020/12/04 04:03:29;;;;;;;2.40;2.03;;;3.20;96.70;;;;;;5054510;28;20246;-69
2020/12/04 04:05:55;;;;;;;2.17;2.00;;;3.40;96.40;;;;;;5054929;28;20197;-70
2020/12/04 04:08:21;;;;;;;4.03;2.83;;;3.40;96.10;;;;;;5055131;28;20214;-70
2020/12/04 04:10:46;;;;;;;2.20;1.90;;;3.30;96.30;;;;;;5055323;28;20166;-70
2020/12/04 04:13:12;;;;;;;3.00;2.10;;;3.30;96.50;;;;;;5055163;28;20615;-69
2020/12/04 04:15:38;;;;;;;3.90;1.83;;;3.30;96.70;;;;;;5055013;28;20616;-68
2020/12/04 04:18:03;;;;;;;2.80;2.50;;;3.40;96.60;;;;;;5055145;28;20176;-69
2020/12/04 04:20:29;;;;;;;2.90;2.60;;;3.40;96.60;;;;;;5054924;28;20217;-69
2020/12/04 04:22:55;;;;;;;1.73;1.63;;;3.40;96.50;;;;;;5054858;28;20166;-69
2020/12/04 04:25:21;;;;;;;3.47;2.20;;;3.40;96.50;;;;;;5054924;28;20406;-70
2020/12/04 04:27:47;;;;;;;2.90;2.57;;;3.40;96.40;;;;;;5055004;28;20616;-69
2020/12/04 04:30:12;;;;;;;2.33;2.13;;;3.50;96.30;;;;;;5054614;28;20922;-69
2020/12/04 04:32:38;;;;;;;3.90;2.87;;;3.60;96.10;;;;;;5054615;28;20413;-69
2020/12/04 04:35:04;;;;;;;2.50;2.27;;;3.70;95.90;;;;;;5054581;28;20166;-69
2020/12/04 04:37:30;;;;;;;1.83;1.67;;;3.70;95.90;;;;;;5054736;28;20266;-69
2020/12/04 04:39:56;;;;;;;3.13;1.60;;;3.70;95.90;;;;;;5054524;28;20217;-69
2020/12/04 04:42:21;;;;;;;3.43;2.80;;;3.70;95.90;;;;;;5053364;28;20186;-69
2020/12/04 04:44:47;;;;;;;3.27;1.93;;;3.50;96.50;;;;;;5054205;28;20407;-68
2020/12/04 04:47:18;;;;;;;2.30;2.03;;;3.60;96.40;;;;;;5053612;28;20603;-69
2020/12/04 04:49:52;;;;;;;3.05;2.75;;;3.60;96.40;;;;;;5054396;28;20182;-69
2020/12/04 04:52:18;;;;;;;6.55;2.92;;;3.80;96.40;;;;;;5054699;28;20679;-70
2020/12/04 04:54:46;;;;;;;2.05;1.95;;;3.70;96.10;;;;;;5054199;28;20582;-69
2020/12/04 04:57:13;;;;;;;3.15;2.03;;;3.80;96.20;;;;;;5054225;28;20191;-70
2020/12/04 04:59:42;;;;;;;1.50;1.40;;;3.80;95.80;;;;;;5054212;28;20593;-69
2020/12/04 05:02:12;;;;;;;2.60;2.35;;;3.60;96.10;;;;;;5054267;28;20180;-69
2020/12/04 05:04:55;;;;;;;1.83;1.70;;;3.40;96.60;;;;;;5054265;28;20168;-69
2020/12/04 05:07:32;;;;;;;2.35;1.70;;;3.40;96.90;;;;;;5053911;28;20196;-69
2020/12/04 05:10:17;;;;;;;2.10;2.00;;;3.50;97.10;;;;;;5053996;28;20188;-69
2020/12/04 05:12:59;;;;;;;2.45;1.60;;;3.60;96.80;;;;;;5054171;28;20251;-70
2020/12/04 05:15:27;;;;;;;1.95;1.85;;;3.60;96.80;;;;;;5053582;28;20711;-70
2020/12/04 05:18:06;;;;;;;2.55;1.67;;;3.60;96.90;;;;;;5054068;28;20171;-69
2020/12/04 05:24:36;;;;;;;1.67;1.58;;;3.50;97.00;;;;;;5054104;28;20231;-69
2020/12/04 05:27:20;;;;;;;1.40;1.30;;;3.70;97.00;;;;;;5052379;28;20205;-69
2020/12/04 05:29:45;;;;;;;1.90;1.48;;;3.80;96.90;;;;;;5053779;28;20191;-70
2020/12/04 05:32:15;;;;;;;2.00;1.83;;;3.80;96.60;;;;;;5053657;28;20567;-69
2020/12/04 05:34:41;;;;;;;2.22;1.80;;;3.90;96.40;;;;;;5053441;28;20163;-68
2020/12/04 05:37:10;;;;;;;1.73;1.63;;;3.50;96.50;;;;;;5053590;28;20182;-69
2020/12/04 05:39:47;;;;;;;3.00;2.80;;;3.40;97.50;;;;;;5053623;28;20865;-69
2020/12/04 05:42:30;;;;;;;1.60;1.50;;;3.40;98.00;;;;;;5053554;28;20181;-69
2020/12/04 05:44:56;;;;;;;1.65;1.40;;;3.40;98.20;;;;;;5053286;28;20167;-69
2020/12/04 05:47:40;;;;;;;2.70;2.13;;;3.50;98.10;;;;;;5053832;28;20261;-69
2020/12/04 05:50:09;;;;;;;2.15;2.03;;;3.50;97.70;;;;;;5053404;28;20194;-69
2020/12/04 05:52:36;;;;;;;1.85;1.42;;;3.40;98.10;;;;;;5053528;28;20209;-69
2020/12/04 05:55:05;;;;;;;2.65;1.50;;;3.30;98.50;;;;;;5053060;28;20277;-70
2020/12/04 05:57:45;;;;;;;2.25;1.90;;;3.50;98.30;;;;;;5053586;28;20183;-69
2020/12/04 06:00:12;;;;;;;2.17;1.52;;;3.80;98.30;;;;;;5053316;28;20192;-69
2020/12/04 06:02:39;;;;;;;2.15;2.05;;;3.90;97.50;;;;;;5053435;28;20236;-70
2020/12/04 06:05:05;;;;;;;0.90;0.90;;;4.00;97.10;;;;;;5053042;28;20260;-69
2020/12/04 06:07:31;;;;;;;1.30;1.20;;;4.00;97.00;;;;;;5053350;28;20634;-70
2020/12/04 06:09:57;;;;;;;1.47;1.10;;;4.10;97.00;;;;;;5053355;28;20284;-68
2020/12/04 06:12:24;;;;;;;0.90;0.90;;;4.10;97.10;;;;;;5053215;28;20241;-69
2020/12/04 06:14:50;;;;;;;1.00;1.00;;;4.10;97.10;;;;;;5052955;28;20407;-70
2020/12/04 06:17:16;;;;;;;1.35;1.30;;;4.10;97.00;;;;;;5053148;28;20170;-69
2020/12/04 06:19:44;;;;;;;1.40;1.30;;;3.90;97.40;;;;;;5052276;28;20197;-70
2020/12/04 06:22:14;;;;;;;1.45;1.35;;;3.90;97.70;;;;;;5053107;28;20591;-69
2020/12/04 06:24:54;;;;;;;2.00;1.90;;;4.00;97.60;;;;;;5052781;28;20193;-69
2020/12/04 06:27:44;;;;;;;2.30;2.10;;;4.10;97.60;;;;;;5054133;28;20279;-69
2020/12/04 06:30:19;;;;;;;4.00;2.85;;;4.10;97.40;;;;;;5056486;28;20229;-69
2020/12/04 06:32:50;;;;;;;2.28;2.08;;;4.20;97.10;;;;;;5057243;28;20198;-69
2020/12/04 06:35:39;;;;;;;1.98;1.85;;;4.30;96.70;;;;;;5056931;28;20177;-69
2020/12/04 06:38:05;;;;;;;2.38;2.17;;;4.30;96.80;;;;;;5056949;28;20200;-69
2020/12/04 06:40:31;;;;;;;2.33;2.03;;;4.20;96.80;;;;;;5056944;28;20659;-69
2020/12/04 06:42:59;;;;;;;1.63;1.52;;;4.30;96.90;;;;;;5056869;28;20174;-69
2020/12/04 06:45:45;;;;;;;2.30;1.15;;;4.20;96.80;;;;;;5056874;28;20209;-69
2020/12/04 06:48:13;;;;;;;1.35;0.95;;;3.80;97.50;;;;;;5056756;28;20691;-70
2020/12/04 06:50:41;;;;;;;1.90;1.80;;;3.80;98.00;;;;;;5056116;28;20738;-69
2020/12/04 06:53:08;;;;;;;1.10;1.00;;;3.90;97.80;;;;;;5057181;28;20517;-69
2020/12/04 06:55:34;;;;;;;1.33;1.23;;;3.90;98.00;;;;;;5055128;28;20174;-69
2020/12/04 06:58:00;;;;;;;1.00;1.00;;;4.00;97.80;;;;;;5056282;28;20174;-69
2020/12/04 07:00:26;;;;;;;2.40;1.63;;;4.10;97.80;;;;;;5056555;28;20236;-69
2020/12/04 07:02:52;;;;;;;1.77;1.55;;;4.30;97.40;;;;;;5056502;28;20182;-69
2020/12/04 07:05:25;;;;;;;2.97;2.40;;;4.20;97.30;;;;;;5055002;28;20647;-69
2020/12/04 07:08:05;;;;;;;2.55;2.22;;;4.30;97.10;;;;;;5056270;28;20209;-69
2020/12/04 07:10:32;;;;;;;3.10;1.80;;;4.20;97.10;;;;;;5056333;28;20162;-69
2020/12/04 07:13:02;;;;;;;3.10;2.80;;;4.10;97.30;;;;;;5056292;28;20196;-69
2020/12/04 07:15:29;;;;;;;2.25;2.15;;;4.20;97.40;;;;;;5056359;28;20170;-69
2020/12/04 07:17:57;;;;;;;5.05;2.20;;;4.30;97.10;;;;;;5055877;28;20641;-69
2020/12/04 07:20:34;;;;;;;2.53;2.28;;;4.30;97.20;;;;;;5056065;28;20187;-69
2020/12/04 07:23:00;;;;;;;1.50;1.40;;;4.30;97.30;;;;;;5056009;28;20193;-70
2020/12/04 07:25:27;;;;;;;1.97;1.30;;;4.40;97.20;;;;;;5055921;28;20181;-72
2020/12/04 07:27:53;;;;;;;1.02;1.00;;;4.40;97.10;;;;;;5054073;28;20285;-74
2020/12/04 07:30:21;;;;;;;0.85;0.80;;;4.40;97.10;;;;;;5055761;28;20194;-70
2020/12/04 07:32:54;;;;;;;1.50;1.40;;;4.40;97.30;;;;;;5056083;28;20166;-71
2020/12/04 07:35:22;;;;;;;1.10;1.00;;;4.50;97.20;;;;;;5055295;28;20174;-69
2020/12/04 07:37:48;;;;;;;1.83;1.73;;;4.50;97.20;;;;;;5055845;28;20178;-73
2020/12/04 07:40:15;;;;;;;2.10;1.90;;;4.60;97.20;;;;;;5055275;28;20201;-72
2020/12/04 07:42:41;;;;;;;1.75;1.35;;;4.70;97.00;;;;;;5056162;28;20816;-71
2020/12/04 07:45:12;;;;;;;4.50;1.85;;;4.70;96.80;;;;;;5054542;28;20170;-72
2020/12/04 07:47:42;;;;;;;1.30;1.20;;;4.70;96.80;;;;;;5054723;28;20198;-73
2020/12/04 07:50:10;;;;;;;2.88;1.90;;;4.80;96.70;;;;;;5055527;28;20195;-73
2020/12/04 07:52:36;;;;;;;1.65;1.50;;;5.00;96.40;;;;;;5055628;28;20177;-73
2020/12/04 07:55:14;;;;;;;2.25;2.05;;;5.00;96.20;;;;;;5055335;28;20178;-74
2020/12/04 07:57:48;;;;;;;3.10;1.60;;;5.10;96.20;;;;;;5055624;28;20170;-74
2020/12/04 08:00:15;;;;;;;1.30;1.20;;;5.20;96.00;;;;;;5055337;28;20189;-73
2020/12/04 08:02:41;;;;;;;1.73;1.10;;;5.20;95.90;;;;;;5055496;28;20178;-70
2020/12/04 08:05:07;;;;;;;0.90;0.90;;;5.30;95.90;;;;;;5053959;28;20265;-70
2020/12/04 08:07:34;;;;;;;0.85;0.80;;;5.30;95.80;;;;;;5055041;28;20447;-73
2020/12/04 08:10:00;;;;;;;1.08;0.98;;;5.20;95.90;;;;;;5055184;28;20190;-74
2020/12/04 08:12:33;;;;;;;2.60;1.83;;;5.20;95.80;;;;;;5055454;28;20179;-72
2020/12/04 08:15:02;;;;;;;3.35;0.90;;;5.00;95.90;;;;;;5055147;28;20189;-75
2020/12/04 08:17:31;;;;;;;8.85;5.55;;;4.70;96.40;;;;;;5055039;28;20178;-73
2020/12/04 08:19:59;;;;;;;3.33;3.03;;;4.60;97.00;;;;;;5055260;28;20198;-68
2020/12/04 08:22:30;;;;;;;1.77;1.67;;;4.60;96.80;;;;;;5055011;28;20599;-73
2020/12/04 08:25:11;;;;;;;2.88;1.67;;;4.50;97.10;;;;;;5054801;28;20679;-72
2020/12/04 08:27:43;;;;;;;3.03;2.05;;;4.60;97.30;;;;;;5054698;28;20335;-73
2020/12/04 08:33:40;;;;;;;3.92;3.17;;;4.50;97.40;;;;;;5054956;28;20659;-68
2020/12/04 08:36:12;;;;;;;2.92;2.47;;;4.70;97.30;;;;;;5054744;28;20173;-69
2020/12/04 08:38:48;;;;;;;3.60;3.30;;;4.70;97.10;;;;;;5052985;28;20221;-68
2020/12/04 08:41:14;;;;;;;3.10;2.58;;;4.80;97.10;;;;;;5055176;28;20504;-68
2020/12/04 08:43:41;;;;;;;2.07;1.80;;;4.90;96.80;;;;;;5054907;28;20188;-67
2020/12/04 08:46:10;;;;;;;2.10;1.90;;;4.90;96.80;;;;;;5054151;28;20167;-67
2020/12/04 08:48:39;;;;;;;2.05;1.23;;;5.00;96.70;;;;;;5054548;28;20206;-67
2020/12/04 08:51:07;;;;;;;1.35;1.25;;;5.10;96.40;;;;;;5054220;28;20169;-67
2020/12/04 08:53:34;;;;;;;4.53;1.70;;;5.20;96.20;;;;;;5054589;28;20260;-67
2020/12/04 08:56:01;;;;;;;4.85;3.60;;;5.20;96.20;;;;;;5054473;28;20162;-67
2020/12/04 08:58:28;;;;;;;7.65;4.38;;;5.30;96.00;;;;;;5054717;28;20194;-67
2020/12/04 09:00:55;;;;;;;16.00;12.32;;;5.40;95.70;;;;;;5054364;28;20166;-67
2020/12/04 09:03:22;;;;;;;21.40;10.60;;;5.50;95.30;;;;;;5054414;28;20746;-67
2020/12/04 09:05:48;;;;;;;5.88;3.50;;;5.30;95.50;;;;;;5054078;28;20632;-67
2020/12/04 09:08:14;;;;;;;11.05;6.50;;;5.50;95.50;;;;;;5054357;28;20202;-67
2020/12/04 09:10:41;;;;;;;4.18;2.80;;;5.60;95.40;;;;;;5054654;28;20167;-67
2020/12/04 09:13:08;;;;;;;3.00;1.23;;;5.70;95.30;;;;;;5054450;28;20549;-71
2020/12/04 09:15:33;;;;;;;2.95;2.53;;;5.50;95.30;;;;;;5053947;28;20223;-67
2020/12/04 09:18:00;;;;;;;4.40;3.57;;;5.50;95.40;;;;;;5054146;28;20634;-67
2020/12/04 09:20:25;;;;;;;8.00;5.00;;;5.50;95.20;;;;;;5054353;28;20432;-68
2020/12/04 09:22:53;;;;;;;3.80;2.43;;;5.40;95.30;;;;;;5054016;28;20178;-68
2020/12/04 09:25:19;;;;;;;2.97;1.95;;;5.30;95.60;;;;;;5054176;28;20170;-68
2020/12/04 09:27:44;;;;;;;4.05;3.20;;;5.40;95.90;;;;;;5054254;28;20289;-68
2020/12/04 09:30:13;;;;;;;2.95;2.70;;;5.30;95.70;;;;;;5053603;28;20368;-68
2020/12/04 09:32:42;;;;;;;3.72;2.85;;;5.70;95.70;;;;;;5053694;28;20194;-68
2020/12/04 09:35:08;;;;;;;4.22;3.30;;;5.70;95.50;;;;;;5053489;28;20166;-68
2020/12/04 09:37:35;;;;;;;2.13;1.60;;;5.80;95.20;;;;;;5053784;28;20177;-68
2020/12/04 09:40:05;;;;;;;3.17;2.13;;;5.70;95.20;;;;;;5053727;28;20240;-68
2020/12/04 09:42:31;;;;;;;1.88;1.73;;;5.80;95.10;;;;;;5053431;28;20174;-68
2020/12/04 09:44:57;;;;;;;3.60;3.30;;;5.50;95.30;;;;;;5053380;28;20170;-68
2020/12/04 09:47:24;;;;;;;6.83;4.80;;;5.50;95.80;;;;;;5053451;28;20531;-68
2020/12/04 09:49:50;;;;;;;14.20;2.20;;;5.70;95.70;;;;;;5053167;28;20447;-69
2020/12/04 09:52:18;;;;;;;3.78;3.35;;;5.90;95.50;;;;;;5053337;28;20162;-69
2020/12/04 09:54:47;;;;;;;8.95;4.68;;;6.10;94.90;;;;;;5053131;28;20162;-68
2020/12/04 09:57:14;;;;;;;6.07;5.18;;;6.10;94.60;;;;;;5053381;28;20171;-69
2020/12/04 09:59:39;;;;;;;3.25;2.70;;;6.10;94.80;;;;;;5053361;28;20202;-70
2020/12/04 10:02:06;;;;;;;5.03;3.97;;;6.30;94.60;;;;;;5052323;28;20166;-69
2020/12/04 10:04:32;;;;;;;54.85;29.67;;;6.50;94.20;;;;;;5052840;28;20466;-69
2020/12/04 10:06:58;;;;;;;20.08;14.07;;;6.70;93.90;;;;;;5053098;28;20574;-69
2020/12/04 10:09:25;;;;;;;2.90;2.58;;;6.80;93.60;;;;;;5053270;28;20277;-69
2020/12/04 10:11:51;;;;;;;4.07;3.42;;;6.80;93.20;;;;;;5053238;28;20509;-69
2020/12/04 10:14:18;;;;;;;2.30;2.00;;;6.70;93.10;;;;;;5053138;28;20181;-69
2020/12/04 10:16:45;;;;;;;2.35;2.03;;;6.70;93.20;;;;;;5053038;28;20497;-69
2020/12/04 10:19:12;;;;;;;4.15;3.17;;;6.70;93.20;;;;;;5052586;28;20594;-69
2020/12/04 10:21:38;;;;;;;1.73;1.63;;;6.50;93.20;;;;;;5053134;28;20220;-69
2020/12/04 10:24:06;;;;;;;2.23;2.03;;;6.40;93.70;;;;;;5053077;28;20189;-69
2020/12/04 10:26:35;;;;;;;1.50;1.40;;;5.90;94.20;;;;;;5052088;28;20173;-69
2020/12/04 10:29:02;;;;;;;2.75;2.50;;;5.80;94.90;;;;;;5053053;28;20201;-69
2020/12/04 10:31:27;;;;;;;2.00;1.83;;;6.00;94.90;;;;;;5053081;28;20189;-69
2020/12/04 10:33:53;;;;;;;3.60;2.53;;;6.30;94.50;;;;;;5053363;28;20628;-68
2020/12/04 10:36:18;;;;;;;2.13;1.80;;;6.50;94.20;;;;;;5052954;28;20223;-68
2020/12/04 10:38:44;;;;;;;1.77;1.67;;;6.50;93.80;;;;;;5053000;28;20232;-68
2020/12/04 10:41:10;;;;;;;2.20;2.10;;;6.50;93.70;;;;;;5053115;28;20170;-68
2020/12/04 10:43:36;;;;;;;1.80;1.70;;;6.50;93.80;;;;;;5053090;28;20411;-68
2020/12/04 10:46:01;;;;;;;3.40;1.00;;;6.60;93.80;;;;;;5053305;28;20574;-68
2020/12/04 10:48:27;;;;;;;3.30;2.93;;;6.60;93.80;;;;;;5053298;28;20202;-68
2020/12/04 10:50:53;;;;;;;8.20;6.00;;;6.60;93.60;;;;;;5052959;28;20400;-68
2020/12/04 10:53:22;;;;;;;9.57;5.60;;;6.50;93.70;;;;;;5052671;28;20170;-68
2020/12/04 10:55:48;;;;;;;3.72;3.28;;;6.50;93.50;;;;;;5052820;28;20180;-68
2020/12/04 10:58:13;;;;;;;4.10;2.37;;;6.70;93.50;;;;;;5052761;28;20174;-68
2020/12/04 11:00:39;;;;;;;11.87;6.60;;;6.60;93.40;;;;;;5052891;28;20661;-68
2020/12/04 11:03:34;;;;;;;6.03;3.07;;;6.50;93.30;;;;;;5053040;28;20178;-68
2020/12/04 11:05:51;;;;;;;7.32;6.63;;;6.50;93.60;;;;;;5052387;28;20567;-68
2020/12/04 11:08:16;;;;;;;6.27;4.40;;;6.50;93.80;;;;;;5052652;28;20206;-68
2020/12/04 11:10:43;;;;;;;6.50;4.10;;;6.60;93.70;;;;;;5052849;28;20654;-69
2020/12/04 11:13:09;;;;;;;2.90;2.70;;;6.70;93.60;;;;;;5053558;28;20159;-68
2020/12/04 11:15:35;;;;;;;2.10;1.90;;;6.70;93.40;;;;;;5056038;28;20282;-68
2020/12/04 11:18:01;;;;;;;3.53;3.10;;;6.80;93.20;;;;;;5056074;28;20687;-68
2020/12/04 11:20:30;;;;;;;7.43;4.80;;;6.80;93.40;;;;;;5056332;28;20490;-68
2020/12/04 11:22:56;;;;;;;4.07;3.13;;;6.80;93.40;;;;;;5056019;28;20186;-69
2020/12/04 11:25:22;;;;;;;6.40;3.67;;;6.80;93.30;;;;;;5055920;28;20666;-68
2020/12/04 11:27:49;;;;;;;3.70;3.40;;;6.80;93.30;;;;;;5056256;28;20240;-68
2020/12/04 11:30:17;;;;;;;2.72;2.47;;;6.70;93.30;;;;;;5055924;28;20555;-68
2020/12/04 11:32:45;;;;;;;3.58;2.80;;;6.40;93.70;;;;;;5056090;28;20245;-68
2020/12/04 11:35:12;;;;;;;4.45;3.97;;;6.50;93.80;;;;;;5055703;28;20178;-68
2020/12/04 11:37:39;;;;;;;3.35;2.88;;;6.50;93.60;;;;;;5055826;28;20245;-68
2020/12/04 11:40:07;;;;;;;2.78;2.42;;;6.50;93.70;;;;;;5054061;28;20618;-68
2020/12/04 11:42:33;;;;;;;2.75;2.30;;;6.20;93.90;;;;;;5054801;28;20166;-68
2020/12/04 11:44:58;;;;;;;2.27;2.07;;;6.20;94.20;;;;;;5055835;28;20304;-68
2020/12/04 11:47:28;;;;;;;3.73;3.33;;;6.20;94.40;;;;;;5055615;28;20448;-68
2020/12/04 11:49:54;;;;;;;4.70;2.58;;;6.40;94.30;;;;;;5055576;28;20265;-69
2020/12/04 11:52:20;;;;;;;2.75;2.58;;;6.40;93.80;;;;;;5055662;28;20632;-68
2020/12/04 11:54:47;;;;;;;5.27;3.83;;;6.40;93.70;;;;;;5055517;28;20253;-68
2020/12/04 11:57:13;;;;;;;2.25;2.15;;;6.30;93.80;;;;;;5055630;28;20408;-68
2020/12/04 11:59:39;;;;;;;5.10;3.60;;;6.40;93.70;;;;;;5055625;28;20201;-68
2020/12/04 12:02:08;;;;;;;7.87;3.03;;;6.50;93.70;;;;;;5055370;28;20416;-68
2020/12/04 12:04:34;;;;;;;3.95;3.55;;;6.50;93.40;;;;;;5054073;28;20405;-69
2020/12/04 12:07:00;;;;;;;3.47;3.00;;;6.40;93.60;;;;;;5053838;28;20217;-68
2020/12/04 12:09:25;;;;;;;5.47;3.60;;;6.40;93.30;;;;;;5055347;28;20243;-68
2020/12/04 12:11:51;;;;;;;4.30;3.90;;;6.40;92.90;;;;;;5055434;28;20185;-68
2020/12/04 12:14:17;;;;;;;5.10;3.20;;;6.10;92.50;;;;;;5055365;28;20178;-68
2020/12/04 12:16:46;;;;;;;3.37;2.70;;;5.70;93.00;;;;;;5054946;28;20177;-68
2020/12/04 12:19:13;;;;;;;5.55;3.75;;;5.60;93.70;;;;;;5055051;28;20218;-68
2020/12/04 12:21:42;;;;;;;3.72;3.30;;;5.60;94.00;;;;;;5055133;28;20192;-68
2020/12/04 12:24:07;;;;;;;15.48;10.85;;;5.80;94.10;;;;;;5054577;28;20178;-68
2020/12/04 12:26:33;;;;;;;4.47;3.23;;;5.70;93.70;;;;;;5054245;28;20228;-68
2020/12/04 12:28:58;;;;;;;4.70;4.30;;;5.60;94.30;;;;;;5054785;28;20576;-68
2020/12/04 12:31:24;;;;;;;6.63;5.67;;;5.70;94.40;;;;;;5055055;28;20174;-68
2020/12/04 12:33:50;;;;;;;9.00;8.10;;;5.60;94.00;;;;;;5054830;28;20202;-68
2020/12/04 12:36:16;;;;;;;7.40;5.32;;;5.80;94.20;;;;;;5054774;28;20162;-68
2020/12/04 12:38:42;;;;;;;6.72;4.50;;;5.80;93.90;;;;;;5054752;28;20273;-68
2020/12/04 12:41:09;;;;;;;3.47;3.17;;;5.90;94.30;;;;;;5054694;28;20205;-68
2020/12/04 12:43:35;;;;;;;5.18;4.63;;;6.00;94.20;;;;;;5054509;28;20662;-68
2020/12/04 12:46:00;;;;;;;4.27;3.87;;;6.20;93.40;;;;;;5054321;28;20174;-68
2020/12/04 12:48:26;;;;;;;5.47;5.00;;;6.30;93.40;;;;;;5054764;28;20460;-68
2020/12/04 12:50:52;;;;;;;7.80;4.23;;;6.40;93.40;;;;;;5054445;28;20178;-68
2020/12/04 12:53:18;;;;;;;5.30;4.80;;;6.50;93.20;;;;;;5054489;28;20197;-68
2020/12/04 12:55:43;;;;;;;4.60;3.67;;;6.60;92.90;;;;;;5054333;28;20174;-68
2020/12/04 12:58:09;;;;;;;4.10;3.80;;;6.60;92.70;;;;;;5054132;28;20416;-68
2020/12/04 13:00:35;;;;;;;3.87;3.57;;;6.30;93.10;;;;;;5054205;28;20197;-68
2020/12/04 13:03:00;;;;;;;4.13;3.80;;;6.30;93.30;;;;;;5054298;28;20517;-68
2020/12/04 13:05:33;;;;;;;5.43;3.70;;;6.40;93.40;;;;;;5054031;28;20196;-68
2020/12/04 13:08:13;;;;;;;7.03;4.68;;;6.50;93.10;;;;;;5054376;28;20240;-68